sensor_id;sensor_type;location;lat;lon;timestamp;P1;durP1;ratioP1;P2;durP2;ratioP2
22005;SDS011;11167;46.988;15.470;2022-09-09T00:01:28;1.55;;;0.68;;
22005;SDS011;11167;46.988;15.470;2022-09-09T00:03:38;0.98;;;0.50;;
22005;SDS011;11167;46.988;15.470;2022-09-09T00:08:30;1.20;;;0.50;;
22005;SDS011;11167;46.988;15.470;2022-09-09T00:10:34;0.72;;;0.57;;
22005;SDS011;11167;46.988;15.470;2022-09-09T00:12:45;1.87;;;0.50;;
22005;SDS011;11167;46.988;15.470;2022-09-09T00:17:00;2.02;;;0.40;;
22005;SDS011;11167;46.988;15.470;2022-09-09T00:19:06;0.68;;;0.53;;
22005;SDS011;11167;46.988;15.470;2022-09-09T00:21:13;1.75;;;0.55;;
22005;SDS011;11167;46.988;15.470;2022-09-09T00:23:27;0.57;;;0.50;;
22005;SDS011;11167;46.988;15.470;2022-09-09T00:25:37;1.47;;;0.42;;
22005;SDS011;11167;46.988;15.470;2022-09-09T00:32:19;2.30;;;0.62;;
22005;SDS011;11167;46.988;15.470;2022-09-09T00:34:20;2.05;;;0.53;;
22005;SDS011;11167;46.988;15.470;2022-09-09T00:36:25;0.85;;;0.53;;
22005;SDS011;11167;46.988;15.470;2022-09-09T00:38:32;2.02;;;0.40;;
22005;SDS011;11167;46.988;15.470;2022-09-09T00:40:45;0.95;;;0.50;;
22005;SDS011;11167;46.988;15.470;2022-09-09T00:48:10;1.90;;;0.50;;
22005;SDS011;11167;46.988;15.470;2022-09-09T00:52:39;1.62;;;0.45;;
22005;SDS011;11167;46.988;15.470;2022-09-09T00:59:12;1.65;;;0.53;;
22005;SDS011;11167;46.988;15.470;2022-09-09T01:05:44;2.40;;;0.53;;
22005;SDS011;11167;46.988;15.470;2022-09-09T01:07:47;0.55;;;0.33;;
22005;SDS011;11167;46.988;15.470;2022-09-09T01:09:56;0.40;;;0.40;;
22005;SDS011;11167;46.988;15.470;2022-09-09T01:12:03;0.65;;;0.45;;
22005;SDS011;11167;46.988;15.470;2022-09-09T01:16:31;0.40;;;0.40;;
22005;SDS011;11167;46.988;15.470;2022-09-09T01:18:35;0.80;;;0.53;;
22005;SDS011;11167;46.988;15.470;2022-09-09T01:20:57;1.10;;;0.50;;
22005;SDS011;11167;46.988;15.470;2022-09-09T01:27:25;1.30;;;0.50;;
22005;SDS011;11167;46.988;15.470;2022-09-09T01:29:27;1.55;;;0.45;;
22005;SDS011;11167;46.988;15.470;2022-09-09T01:31:39;1.00;;;0.40;;
22005;SDS011;11167;46.988;15.470;2022-09-09T01:33:43;1.32;;;0.60;;
22005;SDS011;11167;46.988;15.470;2022-09-09T01:37:51;1.17;;;0.68;;
22005;SDS011;11167;46.988;15.470;2022-09-09T01:39:53;1.37;;;0.55;;
22005;SDS011;11167;46.988;15.470;2022-09-09T01:41:55;0.55;;;0.40;;
22005;SDS011;11167;46.988;15.470;2022-09-09T01:43:57;0.50;;;0.47;;
22005;SDS011;11167;46.988;15.470;2022-09-09T01:45:59;2.85;;;0.65;;
22005;SDS011;11167;46.988;15.470;2022-09-09T01:48:02;0.75;;;0.50;;
22005;SDS011;11167;46.988;15.470;2022-09-09T01:50:04;0.37;;;0.30;;
22005;SDS011;11167;46.988;15.470;2022-09-09T01:52:14;0.40;;;0.40;;
22005;SDS011;11167;46.988;15.470;2022-09-09T01:54:15;0.40;;;0.40;;
22005;SDS011;11167;46.988;15.470;2022-09-09T02:01:06;0.57;;;0.42;;
22005;SDS011;11167;46.988;15.470;2022-09-09T02:03:20;0.60;;;0.50;;
22005;SDS011;11167;46.988;15.470;2022-09-09T02:07:46;0.53;;;0.47;;
22005;SDS011;11167;46.988;15.470;2022-09-09T02:09:52;0.55;;;0.50;;
22005;SDS011;11167;46.988;15.470;2022-09-09T02:12:08;0.42;;;0.35;;
22005;SDS011;11167;46.988;15.470;2022-09-09T02:14:14;1.30;;;0.57;;
22005;SDS011;11167;46.988;15.470;2022-09-09T02:16:24;1.32;;;0.50;;
22005;SDS011;11167;46.988;15.470;2022-09-09T02:18:37;0.50;;;0.40;;
22005;SDS011;11167;46.988;15.470;2022-09-09T02:20:42;0.65;;;0.45;;
22005;SDS011;11167;46.988;15.470;2022-09-09T02:22:47;0.75;;;0.50;;
22005;SDS011;11167;46.988;15.470;2022-09-09T02:24:51;0.68;;;0.40;;
22005;SDS011;11167;46.988;15.470;2022-09-09T02:26:55;1.35;;;0.45;;
22005;SDS011;11167;46.988;15.470;2022-09-09T02:28:59;4.60;;;0.60;;
22005;SDS011;11167;46.988;15.470;2022-09-09T02:31:03;0.72;;;0.40;;
22005;SDS011;11167;46.988;15.470;2022-09-09T02:35:28;0.62;;;0.55;;
22005;SDS011;11167;46.988;15.470;2022-09-09T02:37:34;0.70;;;0.40;;
22005;SDS011;11167;46.988;15.470;2022-09-09T02:39:37;2.10;;;0.40;;
22005;SDS011;11167;46.988;15.470;2022-09-09T02:41:40;1.50;;;0.47;;
22005;SDS011;11167;46.988;15.470;2022-09-09T02:43:42;0.65;;;0.37;;
22005;SDS011;11167;46.988;15.470;2022-09-09T02:46:08;0.82;;;0.40;;
22005;SDS011;11167;46.988;15.470;2022-09-09T02:54:41;0.82;;;0.50;;
22005;SDS011;11167;46.988;15.470;2022-09-09T02:56:48;0.50;;;0.47;;
22005;SDS011;11167;46.988;15.470;2022-09-09T02:58:50;1.05;;;0.35;;
22005;SDS011;11167;46.988;15.470;2022-09-09T03:00:54;1.45;;;0.40;;
22005;SDS011;11167;46.988;15.470;2022-09-09T03:02:58;0.90;;;0.40;;
22005;SDS011;11167;46.988;15.470;2022-09-09T03:04:59;1.07;;;0.68;;
22005;SDS011;11167;46.988;15.470;2022-09-09T03:07:00;0.40;;;0.40;;
22005;SDS011;11167;46.988;15.470;2022-09-09T03:09:03;0.37;;;0.37;;
22005;SDS011;11167;46.988;15.470;2022-09-09T03:11:05;0.60;;;0.50;;
22005;SDS011;11167;46.988;15.470;2022-09-09T03:13:06;1.02;;;0.50;;
22005;SDS011;11167;46.988;15.470;2022-09-09T03:15:08;1.47;;;0.55;;
22005;SDS011;11167;46.988;15.470;2022-09-09T03:17:10;1.02;;;0.50;;
22005;SDS011;11167;46.988;15.470;2022-09-09T03:19:11;0.60;;;0.35;;
22005;SDS011;11167;46.988;15.470;2022-09-09T03:21:12;0.93;;;0.50;;
22005;SDS011;11167;46.988;15.470;2022-09-09T03:23:14;0.50;;;0.40;;
22005;SDS011;11167;46.988;15.470;2022-09-09T03:25:15;1.30;;;0.50;;
22005;SDS011;11167;46.988;15.470;2022-09-09T03:27:17;1.40;;;0.45;;
22005;SDS011;11167;46.988;15.470;2022-09-09T03:29:20;1.40;;;0.62;;
22005;SDS011;11167;46.988;15.470;2022-09-09T03:31:22;0.60;;;0.40;;
22005;SDS011;11167;46.988;15.470;2022-09-09T03:33:23;2.47;;;0.40;;
22005;SDS011;11167;46.988;15.470;2022-09-09T03:35:24;0.78;;;0.33;;
22005;SDS011;11167;46.988;15.470;2022-09-09T03:37:26;1.07;;;0.40;;
22005;SDS011;11167;46.988;15.470;2022-09-09T03:39:27;2.17;;;0.55;;
22005;SDS011;11167;46.988;15.470;2022-09-09T03:41:29;2.98;;;0.50;;
22005;SDS011;11167;46.988;15.470;2022-09-09T03:43:31;0.68;;;0.50;;
22005;SDS011;11167;46.988;15.470;2022-09-09T03:45:33;0.95;;;0.50;;
22005;SDS011;11167;46.988;15.470;2022-09-09T03:47:40;0.70;;;0.40;;
22005;SDS011;11167;46.988;15.470;2022-09-09T03:49:41;1.32;;;0.50;;
22005;SDS011;11167;46.988;15.470;2022-09-09T03:51:42;1.92;;;0.42;;
22005;SDS011;11167;46.988;15.470;2022-09-09T03:53:44;0.93;;;0.40;;
22005;SDS011;11167;46.988;15.470;2022-09-09T03:55:48;0.30;;;0.30;;
22005;SDS011;11167;46.988;15.470;2022-09-09T03:57:55;0.68;;;0.40;;
22005;SDS011;11167;46.988;15.470;2022-09-09T03:59:57;1.70;;;0.50;;
22005;SDS011;11167;46.988;15.470;2022-09-09T04:01:59;0.85;;;0.50;;
22005;SDS011;11167;46.988;15.470;2022-09-09T04:04:01;0.75;;;0.57;;
22005;SDS011;11167;46.988;15.470;2022-09-09T04:06:03;0.80;;;0.33;;
22005;SDS011;11167;46.988;15.470;2022-09-09T04:08:05;1.50;;;0.53;;
22005;SDS011;11167;46.988;15.470;2022-09-09T04:10:13;0.47;;;0.40;;
22005;SDS011;11167;46.988;15.470;2022-09-09T04:12:16;0.93;;;0.50;;
22005;SDS011;11167;46.988;15.470;2022-09-09T04:14:18;1.30;;;0.57;;
22005;SDS011;11167;46.988;15.470;2022-09-09T04:16:20;0.60;;;0.40;;
22005;SDS011;11167;46.988;15.470;2022-09-09T04:18:21;0.45;;;0.40;;
22005;SDS011;11167;46.988;15.470;2022-09-09T04:20:23;2.25;;;0.85;;
22005;SDS011;11167;46.988;15.470;2022-09-09T04:22:24;1.20;;;0.50;;
22005;SDS011;11167;46.988;15.470;2022-09-09T04:24:25;1.90;;;0.53;;
22005;SDS011;11167;46.988;15.470;2022-09-09T04:26:29;0.60;;;0.57;;
22005;SDS011;11167;46.988;15.470;2022-09-09T04:28:31;0.45;;;0.45;;
22005;SDS011;11167;46.988;15.470;2022-09-09T04:30:33;0.50;;;0.50;;
22005;SDS011;11167;46.988;15.470;2022-09-09T04:32:35;0.95;;;0.60;;
22005;SDS011;11167;46.988;15.470;2022-09-09T04:34:37;1.70;;;0.50;;
22005;SDS011;11167;46.988;15.470;2022-09-09T04:36:39;1.30;;;0.57;;
22005;SDS011;11167;46.988;15.470;2022-09-09T04:38:41;1.02;;;0.53;;
22005;SDS011;11167;46.988;15.470;2022-09-09T04:40:48;0.80;;;0.60;;
22005;SDS011;11167;46.988;15.470;2022-09-09T04:42:51;1.12;;;0.50;;
22005;SDS011;11167;46.988;15.470;2022-09-09T04:44:53;1.05;;;0.70;;
22005;SDS011;11167;46.988;15.470;2022-09-09T04:46:54;1.15;;;0.70;;
22005;SDS011;11167;46.988;15.470;2022-09-09T04:48:56;0.40;;;0.37;;
22005;SDS011;11167;46.988;15.470;2022-09-09T04:50:57;1.37;;;0.72;;
22005;SDS011;11167;46.988;15.470;2022-09-09T04:53:04;2.10;;;0.50;;
22005;SDS011;11167;46.988;15.470;2022-09-09T04:55:05;1.15;;;0.75;;
22005;SDS011;11167;46.988;15.470;2022-09-09T04:57:07;1.22;;;0.47;;
22005;SDS011;11167;46.988;15.470;2022-09-09T04:59:11;0.65;;;0.40;;
22005;SDS011;11167;46.988;15.470;2022-09-09T05:01:13;1.37;;;0.70;;
22005;SDS011;11167;46.988;15.470;2022-09-09T05:03:17;0.90;;;0.60;;
22005;SDS011;11167;46.988;15.470;2022-09-09T05:05:19;1.05;;;0.47;;
22005;SDS011;11167;46.988;15.470;2022-09-09T05:07:20;1.77;;;0.62;;
22005;SDS011;11167;46.988;15.470;2022-09-09T05:09:21;0.70;;;0.57;;
22005;SDS011;11167;46.988;15.470;2022-09-09T05:11:24;0.78;;;0.68;;
22005;SDS011;11167;46.988;15.470;2022-09-09T05:13:27;0.85;;;0.60;;
22005;SDS011;11167;46.988;15.470;2022-09-09T05:15:28;2.10;;;0.50;;
22005;SDS011;11167;46.988;15.470;2022-09-09T05:17:31;0.98;;;0.60;;
22005;SDS011;11167;46.988;15.470;2022-09-09T05:19:33;0.53;;;0.53;;
22005;SDS011;11167;46.988;15.470;2022-09-09T05:21:34;0.60;;;0.40;;
22005;SDS011;11167;46.988;15.470;2022-09-09T05:23:35;1.20;;;0.75;;
22005;SDS011;11167;46.988;15.470;2022-09-09T05:25:38;0.57;;;0.50;;
22005;SDS011;11167;46.988;15.470;2022-09-09T05:27:41;0.75;;;0.50;;
22005;SDS011;11167;46.988;15.470;2022-09-09T05:29:42;1.20;;;0.68;;
22005;SDS011;11167;46.988;15.470;2022-09-09T05:31:45;1.10;;;0.60;;
22005;SDS011;11167;46.988;15.470;2022-09-09T05:33:47;0.60;;;0.55;;
22005;SDS011;11167;46.988;15.470;2022-09-09T05:35:54;1.10;;;0.70;;
22005;SDS011;11167;46.988;15.470;2022-09-09T05:38:05;0.60;;;0.60;;
22005;SDS011;11167;46.988;15.470;2022-09-09T05:40:07;0.98;;;0.53;;
22005;SDS011;11167;46.988;15.470;2022-09-09T05:42:09;1.92;;;0.70;;
22005;SDS011;11167;46.988;15.470;2022-09-09T05:44:11;1.67;;;0.70;;
22005;SDS011;11167;46.988;15.470;2022-09-09T05:46:17;1.30;;;0.60;;
22005;SDS011;11167;46.988;15.470;2022-09-09T05:48:20;3.15;;;0.88;;
22005;SDS011;11167;46.988;15.470;2022-09-09T05:50:21;0.40;;;0.35;;
22005;SDS011;11167;46.988;15.470;2022-09-09T05:52:22;0.98;;;0.50;;
22005;SDS011;11167;46.988;15.470;2022-09-09T05:54:24;1.17;;;0.80;;
22005;SDS011;11167;46.988;15.470;2022-09-09T05:56:26;1.77;;;0.80;;
22005;SDS011;11167;46.988;15.470;2022-09-09T05:58:29;1.67;;;0.78;;
22005;SDS011;11167;46.988;15.470;2022-09-09T06:00:33;2.12;;;0.60;;
22005;SDS011;11167;46.988;15.470;2022-09-09T06:02:34;0.80;;;0.80;;
22005;SDS011;11167;46.988;15.470;2022-09-09T06:04:37;1.00;;;0.70;;
22005;SDS011;11167;46.988;15.470;2022-09-09T06:06:39;1.20;;;0.60;;
22005;SDS011;11167;46.988;15.470;2022-09-09T06:08:41;1.32;;;0.75;;
22005;SDS011;11167;46.988;15.470;2022-09-09T06:10:44;2.55;;;0.60;;
22005;SDS011;11167;46.988;15.470;2022-09-09T06:12:45;0.93;;;0.78;;
22005;SDS011;11167;46.988;15.470;2022-09-09T06:14:46;1.35;;;0.90;;
22005;SDS011;11167;46.988;15.470;2022-09-09T06:16:48;2.25;;;0.60;;
22005;SDS011;11167;46.988;15.470;2022-09-09T06:18:49;1.52;;;0.75;;
22005;SDS011;11167;46.988;15.470;2022-09-09T06:20:58;1.07;;;0.82;;
22005;SDS011;11167;46.988;15.470;2022-09-09T06:23:01;0.68;;;0.68;;
22005;SDS011;11167;46.988;15.470;2022-09-09T06:25:02;0.70;;;0.70;;
22005;SDS011;11167;46.988;15.470;2022-09-09T06:27:04;1.67;;;0.75;;
22005;SDS011;11167;46.988;15.470;2022-09-09T06:29:05;3.27;;;0.72;;
22005;SDS011;11167;46.988;15.470;2022-09-09T06:31:08;1.10;;;0.90;;
22005;SDS011;11167;46.988;15.470;2022-09-09T06:33:11;0.90;;;0.90;;
22005;SDS011;11167;46.988;15.470;2022-09-09T06:35:12;0.98;;;0.70;;
22005;SDS011;11167;46.988;15.470;2022-09-09T06:37:14;1.02;;;0.72;;
22005;SDS011;11167;46.988;15.470;2022-09-09T06:39:15;1.27;;;0.90;;
22005;SDS011;11167;46.988;15.470;2022-09-09T06:41:17;1.65;;;0.93;;
22005;SDS011;11167;46.988;15.470;2022-09-09T06:43:25;2.95;;;0.98;;
22005;SDS011;11167;46.988;15.470;2022-09-09T06:45:27;1.92;;;0.90;;
22005;SDS011;11167;46.988;15.470;2022-09-09T06:47:30;2.60;;;1.12;;
22005;SDS011;11167;46.988;15.470;2022-09-09T06:49:31;2.15;;;1.27;;
22005;SDS011;11167;46.988;15.470;2022-09-09T06:51:34;2.22;;;1.05;;
22005;SDS011;11167;46.988;15.470;2022-09-09T06:53:36;2.05;;;1.05;;
22005;SDS011;11167;46.988;15.470;2022-09-09T06:55:39;1.55;;;1.05;;
22005;SDS011;11167;46.988;15.470;2022-09-09T06:57:42;1.42;;;0.90;;
22005;SDS011;11167;46.988;15.470;2022-09-09T06:59:43;1.60;;;1.02;;
22005;SDS011;11167;46.988;15.470;2022-09-09T07:01:45;1.10;;;0.90;;
22005;SDS011;11167;46.988;15.470;2022-09-09T07:03:50;1.10;;;1.00;;
22005;SDS011;11167;46.988;15.470;2022-09-09T07:05:55;2.05;;;1.25;;
22005;SDS011;11167;46.988;15.470;2022-09-09T07:07:57;2.33;;;1.40;;
22005;SDS011;11167;46.988;15.470;2022-09-09T07:09:59;1.80;;;1.07;;
22005;SDS011;11167;46.988;15.470;2022-09-09T07:12:00;3.70;;;1.10;;
22005;SDS011;11167;46.988;15.470;2022-09-09T07:14:01;5.25;;;1.30;;
22005;SDS011;11167;46.988;15.470;2022-09-09T07:16:09;1.55;;;1.20;;
22005;SDS011;11167;46.988;15.470;2022-09-09T07:18:13;6.33;;;1.22;;
22005;SDS011;11167;46.988;15.470;2022-09-09T07:20:14;4.28;;;1.30;;
22005;SDS011;11167;46.988;15.470;2022-09-09T07:22:15;1.87;;;1.10;;
22005;SDS011;11167;46.988;15.470;2022-09-09T07:24:17;1.82;;;1.12;;
22005;SDS011;11167;46.988;15.470;2022-09-09T07:26:19;1.77;;;1.27;;
22005;SDS011;11167;46.988;15.470;2022-09-09T07:28:22;1.62;;;1.20;;
22005;SDS011;11167;46.988;15.470;2022-09-09T07:30:23;2.05;;;1.15;;
22005;SDS011;11167;46.988;15.470;2022-09-09T07:32:24;2.02;;;1.17;;
22005;SDS011;11167;46.988;15.470;2022-09-09T07:34:30;4.80;;;1.30;;
22005;SDS011;11167;46.988;15.470;2022-09-09T07:36:32;1.47;;;1.05;;
22005;SDS011;11167;46.988;15.470;2022-09-09T07:38:43;2.15;;;1.10;;
22005;SDS011;11167;46.988;15.470;2022-09-09T07:40:43;3.30;;;1.17;;
22005;SDS011;11167;46.988;15.470;2022-09-09T07:42:45;2.60;;;1.07;;
22005;SDS011;11167;46.988;15.470;2022-09-09T07:44:47;3.33;;;1.25;;
22005;SDS011;11167;46.988;15.470;2022-09-09T07:46:48;3.42;;;1.10;;
22005;SDS011;11167;46.988;15.470;2022-09-09T07:48:50;1.12;;;1.00;;
22005;SDS011;11167;46.988;15.470;2022-09-09T07:51:02;2.05;;;1.22;;
22005;SDS011;11167;46.988;15.470;2022-09-09T07:53:10;3.35;;;1.50;;
22005;SDS011;11167;46.988;15.470;2022-09-09T07:55:12;3.08;;;1.30;;
22005;SDS011;11167;46.988;15.470;2022-09-09T07:57:13;3.30;;;1.45;;
22005;SDS011;11167;46.988;15.470;2022-09-09T07:59:15;1.70;;;1.60;;
22005;SDS011;11167;46.988;15.470;2022-09-09T08:01:18;1.77;;;1.37;;
22005;SDS011;11167;46.988;15.470;2022-09-09T08:03:21;3.02;;;1.77;;
22005;SDS011;11167;46.988;15.470;2022-09-09T08:05:23;3.37;;;1.60;;
22005;SDS011;11167;46.988;15.470;2022-09-09T08:07:24;2.80;;;1.60;;
22005;SDS011;11167;46.988;15.470;2022-09-09T08:09:25;2.27;;;1.98;;
22005;SDS011;11167;46.988;15.470;2022-09-09T08:11:29;1.82;;;1.57;;
22005;SDS011;11167;46.988;15.470;2022-09-09T08:13:30;2.60;;;1.62;;
22005;SDS011;11167;46.988;15.470;2022-09-09T08:15:31;2.92;;;1.70;;
22005;SDS011;11167;46.988;15.470;2022-09-09T08:17:34;1.75;;;1.30;;
22005;SDS011;11167;46.988;15.470;2022-09-09T08:19:35;1.98;;;1.50;;
22005;SDS011;11167;46.988;15.470;2022-09-09T08:21:37;1.85;;;1.40;;
22005;SDS011;11167;46.988;15.470;2022-09-09T08:23:40;2.55;;;1.52;;
22005;SDS011;11167;46.988;15.470;2022-09-09T08:25:43;1.75;;;1.30;;
22005;SDS011;11167;46.988;15.470;2022-09-09T08:27:46;1.42;;;1.30;;
22005;SDS011;11167;46.988;15.470;2022-09-09T08:29:47;2.10;;;1.20;;
22005;SDS011;11167;46.988;15.470;2022-09-09T08:31:49;2.00;;;1.10;;
22005;SDS011;11167;46.988;15.470;2022-09-09T08:33:51;1.40;;;1.15;;
22005;SDS011;11167;46.988;15.470;2022-09-09T08:35:52;1.62;;;1.20;;
22005;SDS011;11167;46.988;15.470;2022-09-09T08:37:54;2.70;;;1.30;;
22005;SDS011;11167;46.988;15.470;2022-09-09T08:39:55;1.52;;;1.42;;
22005;SDS011;11167;46.988;15.470;2022-09-09T08:42:00;2.12;;;1.12;;
22005;SDS011;11167;46.988;15.470;2022-09-09T08:44:06;2.35;;;1.45;;
22005;SDS011;11167;46.988;15.470;2022-09-09T08:50:42;1.22;;;1.12;;
22005;SDS011;11167;46.988;15.470;2022-09-09T08:52:52;2.10;;;1.12;;
22005;SDS011;11167;46.988;15.470;2022-09-09T08:54:56;2.58;;;1.12;;
22005;SDS011;11167;46.988;15.470;2022-09-09T08:56:59;0.85;;;0.82;;
22005;SDS011;11167;46.988;15.470;2022-09-09T08:59:01;1.45;;;1.10;;
22005;SDS011;11167;46.988;15.470;2022-09-09T09:03:27;1.10;;;1.00;;
22005;SDS011;11167;46.988;15.470;2022-09-09T09:05:32;1.92;;;1.40;;
22005;SDS011;11167;46.988;15.470;2022-09-09T09:12:00;1.50;;;1.25;;
22005;SDS011;11167;46.988;15.470;2022-09-09T09:14:03;0.98;;;0.85;;
22005;SDS011;11167;46.988;15.470;2022-09-09T09:18:32;1.37;;;1.10;;
22005;SDS011;11167;46.988;15.470;2022-09-09T09:20:37;2.02;;;1.20;;
22005;SDS011;11167;46.988;15.470;2022-09-09T09:22:53;1.98;;;1.10;;
22005;SDS011;11167;46.988;15.470;2022-09-09T09:25:11;1.10;;;1.00;;
22005;SDS011;11167;46.988;15.470;2022-09-09T09:27:16;1.62;;;1.00;;
22005;SDS011;11167;46.988;15.470;2022-09-09T09:29:19;1.42;;;1.10;;
22005;SDS011;11167;46.988;15.470;2022-09-09T09:31:22;1.60;;;1.30;;
22005;SDS011;11167;46.988;15.470;2022-09-09T09:33:28;1.30;;;1.10;;
22005;SDS011;11167;46.988;15.470;2022-09-09T09:35:28;2.45;;;1.40;;
22005;SDS011;11167;46.988;15.470;2022-09-09T09:37:31;1.30;;;1.20;;
22005;SDS011;11167;46.988;15.470;2022-09-09T09:39:34;1.50;;;1.10;;
22005;SDS011;11167;46.988;15.470;2022-09-09T09:41:41;1.40;;;1.30;;
22005;SDS011;11167;46.988;15.470;2022-09-09T09:43:41;1.82;;;1.30;;
22005;SDS011;11167;46.988;15.470;2022-09-09T09:45:45;1.50;;;1.05;;
22005;SDS011;11167;46.988;15.470;2022-09-09T09:47:57;1.10;;;1.00;;
22005;SDS011;11167;46.988;15.470;2022-09-09T09:49:55;1.40;;;1.00;;
22005;SDS011;11167;46.988;15.470;2022-09-09T09:52:02;1.45;;;1.20;;
22005;SDS011;11167;46.988;15.470;2022-09-09T09:56:34;1.45;;;1.10;;
22005;SDS011;11167;46.988;15.470;2022-09-09T10:00:54;1.30;;;1.05;;
22005;SDS011;11167;46.988;15.470;2022-09-09T10:02:55;1.40;;;1.30;;
22005;SDS011;11167;46.988;15.470;2022-09-09T10:05:00;1.05;;;0.95;;
22005;SDS011;11167;46.988;15.470;2022-09-09T10:07:10;1.20;;;1.10;;
22005;SDS011;11167;46.988;15.470;2022-09-09T10:09:23;1.50;;;1.30;;
22005;SDS011;11167;46.988;15.470;2022-09-09T10:11:40;1.20;;;1.10;;
22005;SDS011;11167;46.988;15.470;2022-09-09T10:16:33;2.27;;;1.30;;
22005;SDS011;11167;46.988;15.470;2022-09-09T10:18:53;0.90;;;0.90;;
22005;SDS011;11167;46.988;15.470;2022-09-09T10:23:17;1.22;;;1.12;;
22005;SDS011;11167;46.988;15.470;2022-09-09T10:30:00;3.87;;;1.17;;
22005;SDS011;11167;46.988;15.470;2022-09-09T10:34:39;1.32;;;1.20;;
22005;SDS011;11167;46.988;15.470;2022-09-09T10:36:46;1.67;;;1.10;;
22005;SDS011;11167;46.988;15.470;2022-09-09T10:38:52;1.70;;;1.15;;
22005;SDS011;11167;46.988;15.470;2022-09-09T10:43:04;3.40;;;1.20;;
22005;SDS011;11167;46.988;15.470;2022-09-09T10:47:36;1.20;;;1.10;;
22005;SDS011;11167;46.988;15.470;2022-09-09T10:51:49;1.75;;;1.20;;
22005;SDS011;11167;46.988;15.470;2022-09-09T10:56:26;2.15;;;1.10;;
22005;SDS011;11167;46.988;15.470;2022-09-09T10:58:35;1.50;;;1.13;;
22005;SDS011;11167;46.988;15.470;2022-09-09T11:02:59;1.52;;;1.20;;
22005;SDS011;11167;46.988;15.470;2022-09-09T11:05:14;2.60;;;1.30;;
22005;SDS011;11167;46.988;15.470;2022-09-09T11:07:23;1.30;;;1.17;;
22005;SDS011;11167;46.988;15.470;2022-09-09T11:09:19;2.30;;;1.20;;
22005;SDS011;11167;46.988;15.470;2022-09-09T11:13:38;1.35;;;1.17;;
22005;SDS011;11167;46.988;15.470;2022-09-09T11:15:44;1.92;;;1.10;;
22005;SDS011;11167;46.988;15.470;2022-09-09T11:17:49;1.67;;;1.12;;
22005;SDS011;11167;46.988;15.470;2022-09-09T11:19:53;1.22;;;1.02;;
22005;SDS011;11167;46.988;15.470;2022-09-09T11:21:55;1.95;;;1.22;;
22005;SDS011;11167;46.988;15.470;2022-09-09T11:24:03;2.15;;;1.30;;
22005;SDS011;11167;46.988;15.470;2022-09-09T11:26:06;1.65;;;1.40;;
22005;SDS011;11167;46.988;15.470;2022-09-09T11:40:25;1.95;;;1.10;;
22005;SDS011;11167;46.988;15.470;2022-09-09T11:42:29;1.02;;;0.93;;
22005;SDS011;11167;46.988;15.470;2022-09-09T11:44:30;1.47;;;0.90;;
22005;SDS011;11167;46.988;15.470;2022-09-09T11:46:33;1.30;;;1.00;;
22005;SDS011;11167;46.988;15.470;2022-09-09T11:48:38;1.35;;;1.00;;
22005;SDS011;11167;46.988;15.470;2022-09-09T11:50:42;1.60;;;1.17;;
22005;SDS011;11167;46.988;15.470;2022-09-09T11:52:45;1.32;;;1.10;;
22005;SDS011;11167;46.988;15.470;2022-09-09T11:54:48;2.05;;;1.07;;
22005;SDS011;11167;46.988;15.470;2022-09-09T11:56:50;1.20;;;0.90;;
22005;SDS011;11167;46.988;15.470;2022-09-09T11:58:56;1.40;;;1.10;;
22005;SDS011;11167;46.988;15.470;2022-09-09T12:01:15;1.82;;;1.17;;
22005;SDS011;11167;46.988;15.470;2022-09-09T12:05:42;1.20;;;1.05;;
22005;SDS011;11167;46.988;15.470;2022-09-09T12:07:41;1.52;;;1.00;;
22005;SDS011;11167;46.988;15.470;2022-09-09T12:10:02;1.52;;;1.02;;
22005;SDS011;11167;46.988;15.470;2022-09-09T12:12:44;1.00;;;0.90;;
22005;SDS011;11167;46.988;15.470;2022-09-09T12:14:22;2.00;;;1.10;;
22005;SDS011;11167;46.988;15.470;2022-09-09T12:16:35;3.58;;;1.10;;
22005;SDS011;11167;46.988;15.470;2022-09-09T12:18:39;1.10;;;1.00;;
22005;SDS011;11167;46.988;15.470;2022-09-09T12:20:50;1.37;;;1.00;;
22005;SDS011;11167;46.988;15.470;2022-09-09T12:27:26;1.00;;;0.90;;
22005;SDS011;11167;46.988;15.470;2022-09-09T12:29:42;0.80;;;0.78;;
22005;SDS011;11167;46.988;15.470;2022-09-09T12:31:56;1.17;;;0.93;;
22005;SDS011;11167;46.988;15.470;2022-09-09T12:34:06;0.90;;;0.80;;
22005;SDS011;11167;46.988;15.470;2022-09-09T12:36:08;1.20;;;0.90;;
22005;SDS011;11167;46.988;15.470;2022-09-09T12:38:14;1.17;;;0.80;;
22005;SDS011;11167;46.988;15.470;2022-09-09T12:42:39;1.02;;;0.80;;
22005;SDS011;11167;46.988;15.470;2022-09-09T12:44:49;0.98;;;0.78;;
22005;SDS011;11167;46.988;15.470;2022-09-09T12:46:58;1.00;;;0.90;;
22005;SDS011;11167;46.988;15.470;2022-09-09T12:49:02;0.80;;;0.80;;
22005;SDS011;11167;46.988;15.470;2022-09-09T12:51:05;0.80;;;0.80;;
22005;SDS011;11167;46.988;15.470;2022-09-09T12:53:10;0.85;;;0.75;;
22005;SDS011;11167;46.988;15.470;2022-09-09T12:55:20;1.12;;;0.98;;
22005;SDS011;11167;46.988;15.470;2022-09-09T12:57:26;1.00;;;0.90;;
22005;SDS011;11167;46.988;15.470;2022-09-09T12:59:40;1.57;;;0.90;;
22005;SDS011;11167;46.988;15.470;2022-09-09T13:01:43;1.07;;;0.70;;
22005;SDS011;11167;46.988;15.470;2022-09-09T13:03:44;1.22;;;0.80;;
22005;SDS011;11167;46.988;15.470;2022-09-09T13:05:46;1.35;;;1.00;;
22005;SDS011;11167;46.988;15.470;2022-09-09T13:07:47;2.47;;;0.95;;
22005;SDS011;11167;46.988;15.470;2022-09-09T13:09:49;1.15;;;0.80;;
22005;SDS011;11167;46.988;15.470;2022-09-09T13:11:51;0.90;;;0.70;;
22005;SDS011;11167;46.988;15.470;2022-09-09T13:13:56;0.98;;;0.70;;
22005;SDS011;11167;46.988;15.470;2022-09-09T13:15:59;0.70;;;0.70;;
22005;SDS011;11167;46.988;15.470;2022-09-09T13:18:03;0.72;;;0.70;;
22005;SDS011;11167;46.988;15.470;2022-09-09T13:20:14;0.82;;;0.80;;
22005;SDS011;11167;46.988;15.470;2022-09-09T13:22:20;1.22;;;0.90;;
22005;SDS011;11167;46.988;15.470;2022-09-09T13:24:29;1.35;;;0.70;;
22005;SDS011;11167;46.988;15.470;2022-09-09T13:26:33;1.30;;;0.72;;
22005;SDS011;11167;46.988;15.470;2022-09-09T13:28:34;0.88;;;0.75;;
22005;SDS011;11167;46.988;15.470;2022-09-09T13:30:41;0.80;;;0.75;;
22005;SDS011;11167;46.988;15.470;2022-09-09T13:32:44;0.98;;;0.80;;
22005;SDS011;11167;46.988;15.470;2022-09-09T13:34:52;0.88;;;0.88;;
22005;SDS011;11167;46.988;15.470;2022-09-09T13:37:01;1.22;;;0.95;;
22005;SDS011;11167;46.988;15.470;2022-09-09T13:39:13;1.10;;;0.70;;
22005;SDS011;11167;46.988;15.470;2022-09-09T13:41:19;0.70;;;0.70;;
22005;SDS011;11167;46.988;15.470;2022-09-09T13:43:24;0.90;;;0.80;;
22005;SDS011;11167;46.988;15.470;2022-09-09T13:45:26;0.60;;;0.60;;
22005;SDS011;11167;46.988;15.470;2022-09-09T13:47:32;0.95;;;0.80;;
22005;SDS011;11167;46.988;15.470;2022-09-09T13:49:35;0.72;;;0.70;;
22005;SDS011;11167;46.988;15.470;2022-09-09T13:51:43;0.60;;;0.57;;
22005;SDS011;11167;46.988;15.470;2022-09-09T13:53:47;0.85;;;0.70;;
22005;SDS011;11167;46.988;15.470;2022-09-09T13:55:48;1.12;;;0.75;;
22005;SDS011;11167;46.988;15.470;2022-09-09T13:57:57;1.87;;;0.80;;
22005;SDS011;11167;46.988;15.470;2022-09-09T14:00:04;0.80;;;0.70;;
22005;SDS011;11167;46.988;15.470;2022-09-09T14:04:08;1.32;;;0.80;;
22005;SDS011;11167;46.988;15.470;2022-09-09T14:06:12;0.85;;;0.70;;
22005;SDS011;11167;46.988;15.470;2022-09-09T14:08:15;0.93;;;0.70;;
22005;SDS011;11167;46.988;15.470;2022-09-09T14:10:19;1.50;;;0.90;;
22005;SDS011;11167;46.988;15.470;2022-09-09T14:12:20;0.70;;;0.70;;
22005;SDS011;11167;46.988;15.470;2022-09-09T14:14:21;0.60;;;0.60;;
22005;SDS011;11167;46.988;15.470;2022-09-09T14:16:23;0.70;;;0.68;;